TimePDT,TemperatureF,Dew PointF,Humidity,Sea Level PressureIn,VisibilityMPH,Wind Direction,Wind SpeedMPH,Gust SpeedMPH,PrecipitationIn,Events,Conditions,WindDirDegrees,DateUTC
12:53 AM,30.9,30.0,96,30.13,10.0,Calm,Calm,-,N/A,,Clear,0,2013-03-31 07:53:00
1:53 AM,30.9,30.0,96,30.12,8.0,Calm,Calm,-,N/A,,Clear,0,2013-03-31 08:53:00
2:11 AM,30.2,30.2,100,30.10,1.8,Calm,Calm,-,N/A,,Clear,0,2013-03-31 09:11:00
2:20 AM,30.2,28.4,93,30.10,0.5,Calm,Calm,-,N/A,Fog,Light Freezing Fog,0,2013-03-31 09:20:00
2:26 AM,30.2,30.2,100,30.10,2.5,Calm,Calm,-,N/A,,Clear,0,2013-03-31 09:26:00
2:33 AM,30.2,30.2,100,30.10,5.0,Calm,Calm,-,N/A,,Clear,0,2013-03-31 09:33:00
2:53 AM,30.9,28.9,92,30.10,7.0,Calm,Calm,-,N/A,,Clear,0,2013-03-31 09:53:00
3:53 AM,30.0,28.0,92,30.10,4.0,Calm,Calm,-,N/A,,Clear,0,2013-03-31 10:53:00
4:41 AM,26.6,24.8,93,30.08,2.0,Calm,Calm,-,N/A,,Scattered Clouds,0,2013-03-31 11:41:00
4:43 AM,24.8,24.8,100,30.08,1.0,Calm,Calm,-,N/A,,Mist,0,2013-03-31 11:43:00
4:48 AM,24.8,24.8,100,30.08,0.2,Calm,Calm,-,N/A,Fog,Light Freezing Fog,0,2013-03-31 11:48:00
4:53 AM,26.1,24.1,92,30.10,0.2,Calm,Calm,-,N/A,Fog,Light Freezing Fog,0,2013-03-31 11:53:00
5:15 AM,26.6,24.8,93,30.08,0.5,Calm,Calm,-,N/A,Fog,Light Freezing Fog,0,2013-03-31 12:15:00
5:50 AM,28.4,26.6,93,30.08,2.0,Calm,Calm,-,N/A,,Mostly Cloudy,0,2013-03-31 12:50:00
5:53 AM,27.0,26.1,96,30.10,7.0,Calm,Calm,-,N/A,,Scattered Clouds,0,2013-03-31 12:53:00
6:27 AM,28.4,26.6,93,30.08,1.0,Calm,Calm,-,N/A,,Clear,0,2013-03-31 13:27:00
6:31 AM,24.8,24.8,100,30.08,0.2,Calm,Calm,-,N/A,Fog,Light Freezing Fog,0,2013-03-31 13:31:00
6:42 AM,23.0,23.0,100,30.08,1.0,Calm,Calm,-,N/A,,Clear,0,2013-03-31 13:42:00
6:53 AM,24.1,21.9,91,30.12,0.2,Calm,Calm,-,N/A,Fog,Light Freezing Fog,0,2013-03-31 13:53:00
7:08 AM,24.8,24.8,100,30.08,0.2,Calm,Calm,-,N/A,Fog,Light Freezing Fog,0,2013-03-31 14:08:00
7:40 AM,30.2,28.4,93,30.08,0.8,Calm,Calm,-,N/A,,Mist,0,2013-03-31 14:40:00
7:44 AM,30.2,30.2,100,30.09,1.2,Calm,Calm,-,N/A,,Scattered Clouds,0,2013-03-31 14:44:00
7:48 AM,30.2,30.2,100,30.09,3.0,Calm,Calm,-,N/A,,Scattered Clouds,0,2013-03-31 14:48:00
7:53 AM,30.9,30.9,100,30.12,5.0,Calm,Calm,-,N/A,,Scattered Clouds,0,2013-03-31 14:53:00
8:53 AM,42.1,35.1,76,30.10,10.0,Calm,Calm,-,N/A,,Clear,0,2013-03-31 15:53:00
9:53 AM,48.9,34.0,56,30.08,10.0,Calm,Calm,-,N/A,,Clear,0,2013-03-31 16:53:00
10:53 AM,55.0,35.1,47,30.07,10.0,Calm,Calm,-,N/A,,Clear,0,2013-03-31 17:53:00
11:53 AM,60.1,34.0,38,30.05,10.0,Calm,Calm,-,N/A,,Clear,0,2013-03-31 18:53:00
12:53 PM,64.9,32.0,29,30.02,10.0,Variable,4.6,-,N/A,,Clear,0,2013-03-31 19:53:00
1:53 PM,66.9,30.9,26,29.99,10.0,Variable,4.6,-,N/A,,Clear,0,2013-03-31 20:53:00
2:53 PM,68.0,30.0,24,29.96,10.0,Variable,3.5,-,N/A,,Clear,0,2013-03-31 21:53:00
3:53 PM,70.0,28.0,21,29.93,10.0,NNE,6.9,-,N/A,,Clear,20,2013-03-31 22:53:00
4:53 PM,69.1,25.0,19,29.92,10.0,Calm,Calm,-,N/A,,Clear,0,2013-03-31 23:53:00
5:53 PM,68.0,19.0,15,29.90,10.0,NNE,5.8,-,N/A,,Clear,30,2013-04-01 00:53:00
6:53 PM,60.1,32.0,35,29.92,7.0,NW,8.1,-,N/A,,Clear,310,2013-04-01 01:53:00
7:53 PM,50.0,34.0,54,29.93,10.0,West,6.9,-,N/A,,Clear,270,2013-04-01 02:53:00
8:53 PM,46.0,34.0,63,29.94,10.0,WSW,3.5,-,N/A,,Clear,250,2013-04-01 03:53:00
9:53 PM,45.0,35.1,68,29.93,10.0,South,3.5,-,N/A,,Clear,190,2013-04-01 04:53:00
10:53 PM,41.0,33.1,73,29.93,10.0,South,5.8,-,N/A,,Clear,170,2013-04-01 05:53:00
11:53 PM,37.9,30.9,76,29.92,10.0,South,3.5,-,N/A,,Clear,170,2013-04-01 06:53:00